^^
Daily Summary for September 08, 2021 Units:  Metric    English   Both
Daily Weekly Monthly Yearly Custom
  High: Low: Average:
Temperature: 41.1 °C 21.7 °C 29.4 °C
Dew Point: 13.3 °C 4.4 °C 7.1 °C
Humidity: 39% 12% 27%
Wind Speed: 25.7km/h 0km/h 5.1km/h
Wind Gust: 25.7km/h - -
Wind- - WSW
Pressure: 1015.8 hPa 1009 hPa -
Precipitation: 0 mm    
Historical Graphs
 
 
Tabular Data for September 08, 2021
Time Temperature Dew Point Pressure Wind Wind Speed Wind Gust Humidity Rainfall Rate (Hourly) solar
00:04 23.3 °C 4.4 °C 1012.4 hPa Calm     30% 0 mm 0.00 W/m2
00:09 23.3 °C 4.4 °C 1012.4 hPa Calm     30% 0 mm 0.00 W/m2
00:14 23.3 °C 4.4 °C 1012.4 hPa Calm     30% 0 mm 0.00 W/m2
00:19 22.8 °C 4.4 °C 1012.4 hPa Calm     30% 0 mm 0.00 W/m2
00:24 22.8 °C 5 °C 1012.4 hPa Calm     31% 0 mm 0.00 W/m2
00:29 22.8 °C 5 °C 1012.4 hPa Calm     31% 0 mm 0.00 W/m2
00:34 22.8 °C 5 °C 1012.4 hPa Calm     31% 0 mm 0.00 W/m2
00:39 22.8 °C 5 °C 1012.4 hPa Calm     31% 0 mm 0.00 W/m2
00:44 22.8 °C 5 °C 1012.4 hPa Calm     31% 0 mm 0.00 W/m2
00:49 22.8 °C 5 °C 1012.4 hPa Calm     31% 0 mm 0.00 W/m2
00:54 22.8 °C 5 °C 1012.4 hPa Calm     31% 0 mm 0.00 W/m2
00:59 22.8 °C 5 °C 1012.4 hPa Calm     32% 0 mm 0.00 W/m2
01:04 22.8 °C 5 °C 1012.4 hPa Calm     32% 0 mm 0.00 W/m2
01:09 22.8 °C 5.6 °C 1012.4 hPa Calm     33% 0 mm 0.00 W/m2
01:14 22.8 °C 5.6 °C 1012.4 hPa Calm     33% 0 mm 0.00 W/m2
01:19 22.8 °C 5 °C 1012.4 hPa Calm     32% 0 mm 0.00 W/m2
01:24 22.8 °C 5.6 °C 1012.4 hPa Calm     33% 0 mm 0.00 W/m2
01:29 22.2 °C 5.6 °C 1012.4 hPa Calm     33% 0 mm 0.00 W/m2
01:34 22.2 °C 5.6 °C 1012.4 hPa Calm     33% 0 mm 0.00 W/m2
01:39 22.2 °C 5.6 °C 1012.4 hPa Calm     33% 0 mm 0.00 W/m2
01:44 22.2 °C 5.6 °C 1012.4 hPa Calm     33% 0 mm 0.00 W/m2
01:49 22.2 °C 5.6 °C 1012.4 hPa Calm     33% 0 mm 0.00 W/m2
01:54 22.2 °C 5.6 °C 1012.4 hPa Calm     34% 0 mm 0.00 W/m2
01:59 22.2 °C 5.6 °C 1012.4 hPa Calm     34% 0 mm 0.00 W/m2
02:04 22.2 °C 5.6 °C 1012.4 hPa Calm     34% 0 mm 0.00 W/m2
02:09 22.2 °C 5 °C 1012.4 hPa Calm     33% 0 mm 0.00 W/m2
02:14 22.2 °C 6.1 °C 1012.4 hPa Calm     35% 0 mm 0.00 W/m2
02:19 22.2 °C 6.1 °C 1012.4 hPa Calm     35% 0 mm 0.00 W/m2
02:24 22.2 °C 6.1 °C 1012.4 hPa Calm     35% 0 mm 0.00 W/m2
02:29 22.2 °C 7.2 °C 1012.4 hPa Calm     38% 0 mm 0.00 W/m2
02:34 22.2 °C 6.1 °C 1012.4 hPa Calm     35% 0 mm 0.00 W/m2
02:39 22.2 °C 6.1 °C 1012.4 hPa Calm     35% 0 mm 0.00 W/m2
02:44 22.2 °C 6.1 °C 1012.4 hPa Calm     36% 0 mm 0.00 W/m2
02:49 22.2 °C 6.1 °C 1012.4 hPa Calm     36% 0 mm 0.00 W/m2
02:54 22.2 °C 6.7 °C 1012.4 hPa Calm     37% 0 mm 0.00 W/m2
02:59 22.2 °C 6.1 °C 1012.4 hPa ESE 3.2 km/h   36% 0 mm 0.00 W/m2
03:04 22.2 °C 6.1 °C 1012.4 hPa ESE 3.2 km/h 3.2 km/h 36% 0 mm 0.00 W/m2
03:09 21.7 °C 7.2 °C 1012.4 hPa Calm     38% 0 mm 0.00 W/m2
03:14 21.7 °C 7.2 °C 1012.4 hPa Calm     38% 0 mm 0.00 W/m2
03:19 21.7 °C 6.7 °C 1012.4 hPa Calm     37% 0 mm 0.00 W/m2
03:24 21.7 °C 6.7 °C 1012.4 hPa Calm     37% 0 mm 0.00 W/m2
03:29 21.7 °C 6.7 °C 1012.4 hPa Calm     38% 0 mm 0.00 W/m2
03:34 21.7 °C 6.7 °C 1012.4 hPa Calm     37% 0 mm 0.00 W/m2
03:39 21.7 °C 6.7 °C 1012.4 hPa Calm     37% 0 mm 0.00 W/m2
03:44 21.7 °C 6.7 °C 1012.4 hPa Calm     37% 0 mm 0.00 W/m2
03:49 21.7 °C 6.7 °C 1012.4 hPa ESE 3.2 km/h   38% 0 mm 0.00 W/m2
03:54 21.7 °C 6.7 °C 1012.4 hPa ESE 3.2 km/h 3.2 km/h 38% 0 mm 0.00 W/m2
03:59 21.7 °C 6.7 °C 1012.4 hPa Calm   3.2 km/h 38% 0 mm 0.00 W/m2
04:04 21.7 °C 7.2 °C 1012.4 hPa ESE 3.2 km/h   39% 0 mm 0.00 W/m2
04:09 21.7 °C 6.7 °C 1012.4 hPa Calm   3.2 km/h 38% 0 mm 0.00 W/m2
04:14 21.7 °C 6.7 °C 1012.4 hPa Calm     38% 0 mm 0.00 W/m2
04:19 21.7 °C 6.7 °C 1012.4 hPa Calm     37% 0 mm 0.00 W/m2
04:24 21.7 °C 7.2 °C 1012.4 hPa ESE 3.2 km/h   38% 0 mm 0.00 W/m2
04:29 21.7 °C 7.2 °C 1012.4 hPa Calm   3.2 km/h 38% 0 mm 0.00 W/m2
04:34 22.2 °C 7.2 °C 1012.4 hPa ESE 3.2 km/h   39% 0 mm 0.00 W/m2
04:39 22.2 °C 7.2 °C 1012.4 hPa ESE 3.2 km/h 3.2 km/h 38% 0 mm 0.00 W/m2
04:44 22.2 °C 6.1 °C 1012.4 hPa Calm   3.2 km/h 36% 0 mm 0.00 W/m2
04:49 22.2 °C 6.1 °C 1012.4 hPa Calm     36% 0 mm 0.00 W/m2
04:54 22.2 °C 6.1 °C 1012.4 hPa Calm     36% 0 mm 0.00 W/m2
04:59 22.2 °C 6.1 °C 1012.4 hPa Calm     36% 0 mm 0.00 W/m2
05:04 22.2 °C 6.1 °C 1012.4 hPa Calm     36% 0 mm 0.00 W/m2
05:09 22.2 °C 6.1 °C 1012.4 hPa Calm     36% 0 mm 0.00 W/m2
05:14 22.2 °C 6.1 °C 1012.4 hPa Calm     36% 0 mm 0.00 W/m2
05:19 22.2 °C 6.7 °C 1012.4 hPa Calm     37% 0 mm 0.00 W/m2
05:24 22.2 °C 6.1 °C 1012.4 hPa Calm     35% 0 mm 0.00 W/m2
05:29 22.2 °C 6.1 °C 1012.4 hPa ESE 3.2 km/h   36% 0 mm 0.00 W/m2
05:34 22.2 °C 6.1 °C 1012.4 hPa ESE 3.2 km/h 3.2 km/h 36% 0 mm 0.00 W/m2
05:39 22.2 °C 6.1 °C 1012.4 hPa ESE 3.2 km/h 3.2 km/h 36% 0 mm 0.00 W/m2
05:44 22.2 °C 5.6 °C 1012.4 hPa Calm   3.2 km/h 34% 0 mm 0.00 W/m2
05:49 22.2 °C 6.1 °C 1012.4 hPa Calm     36% 0 mm 0.00 W/m2
05:54 22.2 °C 6.1 °C 1012.4 hPa Calm     35% 0 mm 0.00 W/m2
05:59 22.2 °C 6.1 °C 1012.4 hPa Calm     35% 0 mm 0.00 W/m2
06:04 22.2 °C 6.1 °C 1012.4 hPa Calm     35% 0 mm 0.00 W/m2
06:09 22.2 °C 5.6 °C 1012.4 hPa Calm     34% 0 mm 0.00 W/m2
06:14 22.2 °C 6.7 °C 1012.4 hPa Calm     37% 0 mm 0.00 W/m2
06:19 22.2 °C 6.1 °C 1012.4 hPa ESE 3.2 km/h   35% 0 mm 0.00 W/m2
06:24 22.2 °C 5.6 °C 1012.4 hPa ESE 3.2 km/h 3.2 km/h 34% 0 mm 0.00 W/m2
06:29 22.2 °C 5.6 °C 1012.4 hPa Calm   3.2 km/h 34% 0 mm 0.00 W/m2
06:34 22.2 °C 6.1 °C 1012.4 hPa ESE 3.2 km/h   35% 0 mm 0.00 W/m2
06:39 22.2 °C 6.1 °C 1012.4 hPa SE 6.4 km/h 4.8 km/h 36% 0 mm 0.00 W/m2
06:44 22.2 °C 6.1 °C 1012.4 hPa Calm   4.8 km/h 36% 0 mm 0.00 W/m2
06:49 22.2 °C 5.6 °C 1012.4 hPa ESE 3.2 km/h   34% 0 mm 5.00 W/m2
06:54 22.2 °C 5.6 °C 1012.4 hPa ESE 3.2 km/h 3.2 km/h 34% 0 mm 9.00 W/m2
06:59 22.2 °C 5 °C 1012.4 hPa Calm   3.2 km/h 33% 0 mm 11.00 W/m2
07:04 22.2 °C 5 °C 1012.4 hPa ESE 3.2 km/h   33% 0 mm 12.00 W/m2
07:09 22.2 °C 5.6 °C 1012.4 hPa Calm   3.2 km/h 33% 0 mm 14.00 W/m2
07:14 22.2 °C 5 °C 1012.4 hPa Calm     32% 0 mm 16.00 W/m2
07:19 22.2 °C 5 °C 1012.4 hPa Calm     32% 0 mm 18.00 W/m2
07:24 22.2 °C 5.6 °C 1012.4 hPa Calm     33% 0 mm 21.00 W/m2
07:29 22.8 °C 6.1 °C 1012.4 hPa Calm     34% 0 mm 23.00 W/m2
07:34 22.8 °C 6.1 °C 1012.4 hPa Calm     35% 0 mm 26.00 W/m2
07:39 22.8 °C 6.1 °C 1012.4 hPa Calm     35% 0 mm 28.00 W/m2
07:44 22.2 °C 5.6 °C 1012.4 hPa Calm     34% 0 mm 32.00 W/m2
07:49 22.2 °C 7.2 °C 1012.4 hPa Calm     37% 0 mm 35.00 W/m2
07:54 22.2 °C 6.7 °C 1012.4 hPa Calm     36% 0 mm 37.00 W/m2
07:59 22.2 °C 6.1 °C 1012.4 hPa Calm     35% 0 mm 39.00 W/m2
08:04 22.2 °C 6.7 °C 1012.4 hPa Calm     36% 0 mm 42.00 W/m2
08:09 22.2 °C 6.7 °C 1012.4 hPa Calm     36% 0 mm 46.00 W/m2
08:14 22.2 °C 6.7 °C 1012.4 hPa Calm     36% 0 mm 51.00 W/m2
08:19 22.2 °C 6.7 °C 1015.8 hPa ESE 6.4 km/h 1.6 km/h 36% 0 mm 53.00 W/m2
08:24 22.8 °C 6.7 °C 1015.8 hPa Calm   4.8 km/h 36% 0 mm 63.00 W/m2
08:29 22.8 °C 7.2 °C 1015.8 hPa Calm     37% 0 mm 156.00 W/m2
08:34 22.8 °C 7.2 °C 1012.4 hPa ESE 3.2 km/h   37% 0 mm 151.00 W/m2
08:39 23.3 °C 7.2 °C 1012.4 hPa ESE 3.2 km/h 3.2 km/h 37% 0 mm 283.00 W/m2
08:44 23.3 °C 7.8 °C 1012.4 hPa ESE 3.2 km/h 3.2 km/h 37% 0 mm 322.00 W/m2
08:49 23.9 °C 8.3 °C 1012.4 hPa Calm   3.2 km/h 37% 0 mm 322.00 W/m2
08:54 24.4 °C 8.3 °C 1012.4 hPa Calm     37% 0 mm 311.00 W/m2
08:59 24.4 °C 8.9 °C 1012.4 hPa Calm     36% 0 mm 353.00 W/m2
09:04 25 °C 8.9 °C 1012.4 hPa Calm     36% 0 mm 364.00 W/m2
09:09 25.6 °C 8.9 °C 1015.8 hPa ESE 3.2 km/h   35% 0 mm 383.00 W/m2
09:14 26.1 °C 8.3 °C 1015.8 hPa ESE 3.2 km/h 3.2 km/h 32% 0 mm 383.00 W/m2
09:19 26.7 °C 7.8 °C 1015.8 hPa ESE 3.2 km/h 3.2 km/h 30% 0 mm 403.00 W/m2
09:24 27.2 °C 8.9 °C 1015.8 hPa ESE 9.7 km/h 9.7 km/h 32% 0 mm 403.00 W/m2
09:29 27.8 °C 8.3 °C 1012.4 hPa ESE 9.7 km/h 9.7 km/h 30% 0 mm 439.00 W/m2
09:34 28.3 °C 8.3 °C 1015.8 hPa SSE 9.7 km/h 9.7 km/h 29% 0 mm 454.00 W/m2
09:39 28.9 °C 7.8 °C 1012.4 hPa South 11.3 km/h 9.7 km/h 28% 0 mm 490.00 W/m2
09:44 28.9 °C 7.2 °C 1015.8 hPa SSE 11.3 km/h 11.3 km/h 26% 0 mm 504.00 W/m2
09:49 29.4 °C 6.7 °C 1015.8 hPa SSE 11.3 km/h 9.7 km/h 24% 0 mm 522.00 W/m2
09:54 30 °C 7.8 °C 1015.8 hPa SSE 9.7 km/h 11.3 km/h 25% 0 mm 543.00 W/m2
09:59 30 °C 7.8 °C 1015.8 hPa SSW 6.4 km/h 4.8 km/h 25% 0 mm 559.00 W/m2
10:04 30.6 °C 6.1 °C 1015.8 hPa NW 14.5 km/h 6.4 km/h 22% 0 mm 573.00 W/m2
10:09 31.1 °C 6.1 °C 1015.8 hPa WNW 14.5 km/h 14.5 km/h 21% 0 mm 582.00 W/m2
10:14 31.1 °C 6.1 °C 1015.8 hPa WSW 11.3 km/h 14.5 km/h 21% 0 mm 594.00 W/m2
10:19 31.1 °C 6.1 °C 1015.8 hPa West 14.5 km/h 11.3 km/h 21% 0 mm 603.00 W/m2
10:24 31.7 °C 6.7 °C 1015.8 hPa WNW 17.7 km/h 14.5 km/h 21% 0 mm 619.00 W/m2
10:29 31.7 °C 6.1 °C 1015.8 hPa NW 11.3 km/h 16.1 km/h 20% 0 mm 640.00 W/m2
10:34 31.7 °C 6.1 °C 1015.8 hPa NW 14.5 km/h 12.9 km/h 20% 0 mm 657.00 W/m2
10:39 31.7 °C 6.1 °C 1015.8 hPa SE 14.5 km/h 14.5 km/h 20% 0 mm 666.00 W/m2
10:44 32.2 °C 6.1 °C 1015.8 hPa NW 11.3 km/h 11.3 km/h 20% 0 mm 673.00 W/m2
10:49 32.2 °C 6.7 °C 1012.4 hPa WNW 14.5 km/h 11.3 km/h 20% 0 mm 687.00 W/m2
10:54 32.2 °C 7.2 °C 1012.4 hPa WNW 9.7 km/h 14.5 km/h 21% 0 mm 701.00 W/m2
10:59 32.8 °C 6.1 °C 1012.4 hPa NW 11.3 km/h 9.7 km/h 19% 0 mm 712.00 W/m2
11:04 32.8 °C 6.1 °C 1012.4 hPa WNW 11.3 km/h 11.3 km/h 19% 0 mm 722.00 W/m2
11:09 32.8 °C 5.6 °C 1012.4 hPa West 14.5 km/h 11.3 km/h 18% 0 mm 731.00 W/m2
11:14 32.8 °C 6.1 °C 1012.4 hPa WNW 14.5 km/h 14.5 km/h 19% 0 mm 751.00 W/m2
11:19 33.3 °C 6.1 °C 1012.4 hPa West 20.9 km/h 14.5 km/h 19% 0 mm 756.00 W/m2
11:24 33.3 °C 6.7 °C 1012.4 hPa West 17.7 km/h 20.9 km/h 19% 0 mm 770.00 W/m2
11:29 33.3 °C 5.6 °C 1012.4 hPa WNW 16.1 km/h 16.1 km/h 18% 0 mm 772.00 W/m2
11:34 33.3 °C 6.1 °C 1012.4 hPa NW 6.4 km/h 9.7 km/h 18% 0 mm 779.00 W/m2
11:39 33.3 °C 6.1 °C 1012.4 hPa NW 9.7 km/h 4.8 km/h 18% 0 mm 782.00 W/m2
11:44 33.9 °C 6.7 °C 1012.4 hPa West 17.7 km/h 11.3 km/h 19% 0 mm 793.00 W/m2
11:49 33.9 °C 7.2 °C 1012.4 hPa West 16.1 km/h 16.1 km/h 19% 0 mm 802.00 W/m2
11:54 33.9 °C 6.7 °C 1012.4 hPa West 11.3 km/h 14.5 km/h 18% 0 mm 805.00 W/m2
11:59 34.4 °C 5.6 °C 1012.4 hPa West 11.3 km/h 11.3 km/h 17% 0 mm 810.00 W/m2
12:04 34.4 °C 6.1 °C 1012.4 hPa WNW 25.7 km/h 25.7 km/h 17% 0 mm 810.00 W/m2
12:09 34.4 °C 6.1 °C 1012.4 hPa WSW 17.7 km/h 16.1 km/h 17% 0 mm 817.00 W/m2
12:14 35 °C 6.1 °C 1012.4 hPa WNW 14.5 km/h 16.1 km/h 17% 0 mm 819.00 W/m2
12:18 35 °C 7.2 °C 1012.4 hPa WSW 11.3 km/h 14.5 km/h 18% 0 mm 826.00 W/m2
12:24 35 °C 6.7 °C 1012.4 hPa South 3.2 km/h 11.3 km/h 17% 0 mm 828.00 W/m2
12:29 35.6 °C 7.2 °C 1012.4 hPa NW 14.5 km/h 9.7 km/h 18% 0 mm 830.00 W/m2
12:34 35.6 °C 6.7 °C 1012.4 hPa West 14.5 km/h 14.5 km/h 17% 0 mm 831.00 W/m2
12:39 36.1 °C 6.7 °C 1012.4 hPa SW 9.7 km/h 14.5 km/h 17% 0 mm 830.00 W/m2
12:44 36.1 °C 6.1 °C 1012.4 hPa WNW 11.3 km/h 9.7 km/h 16% 0 mm 826.00 W/m2
12:49 36.1 °C 5.6 °C 1012.4 hPa WSW 17.7 km/h 11.3 km/h 15% 0 mm 828.00 W/m2
12:54 36.1 °C 6.7 °C 1012.4 hPa West 9.7 km/h 16.1 km/h 16% 0 mm 826.00 W/m2
12:59 36.7 °C 7.8 °C 1012.4 hPa West 17.7 km/h 17.7 km/h 17% 0 mm 824.00 W/m2
13:04 36.7 °C 6.1 °C 1012.4 hPa West 12.9 km/h 16.1 km/h 15% 0 mm 830.00 W/m2
13:09 37.2 °C 7.2 °C 1012.4 hPa WNW 6.4 km/h 11.3 km/h 16% 0 mm 830.00 W/m2
13:14 37.2 °C 7.2 °C 1012.4 hPa WNW 14.5 km/h 8 km/h 16% 0 mm 826.00 W/m2
13:19 37.2 °C 6.1 °C 1012.4 hPa West 14.5 km/h 14.5 km/h 15% 0 mm 828.00 W/m2
13:24 37.8 °C 6.7 °C 1012.4 hPa WSW 6.4 km/h 9.7 km/h 15% 0 mm 823.00 W/m2
13:29 37.8 °C 6.7 °C 1012.4 hPa WNW 17.7 km/h 6.4 km/h 15% 0 mm 816.00 W/m2
13:34 37.8 °C 6.7 °C 1012.4 hPa West 6.4 km/h 16.1 km/h 15% 0 mm 807.00 W/m2
13:39 38.3 °C 7.2 °C 1012.4 hPa WSW 6.4 km/h 4.8 km/h 15% 0 mm 803.00 W/m2
13:44 38.9 °C 7.2 °C 1012.4 hPa West 14.5 km/h 8 km/h 15% 0 mm 796.00 W/m2
13:49 38.9 °C 6.7 °C 1012.4 hPa NNW 14.5 km/h 14.5 km/h 14% 0 mm 795.00 W/m2
13:54 38.9 °C 6.7 °C 1012.4 hPa NW 19.3 km/h 16.1 km/h 14% 0 mm 793.00 W/m2
13:59 39.4 °C 6.7 °C 1012.4 hPa NNE 20.9 km/h 20.9 km/h 14% 0 mm 788.00 W/m2
14:04 39.4 °C 6.7 °C 1012.4 hPa WSW 9.7 km/h 11.3 km/h 14% 0 mm 782.00 W/m2
14:09 39.4 °C 6.1 °C 1012.4 hPa WNW 20.9 km/h 16.1 km/h 13% 0 mm 775.00 W/m2
14:14 39.4 °C 7.2 °C 1012.4 hPa WSW 20.9 km/h 20.9 km/h 14% 0 mm 761.00 W/m2
14:19 40 °C 7.2 °C 1012.4 hPa WNW 9.7 km/h 9.7 km/h 14% 0 mm 751.00 W/m2
14:24 40 °C 7.2 °C 1012.4 hPa NNW 14.5 km/h 9.7 km/h 14% 0 mm 752.00 W/m2
14:29 40 °C 6.1 °C 1012.4 hPa WNW 14.5 km/h 14.5 km/h 13% 0 mm 740.00 W/m2
14:34 40 °C 6.7 °C 1012.4 hPa WNW 11.3 km/h 14.5 km/h 13% 0 mm 733.00 W/m2
14:39 40 °C 6.7 °C 1012.4 hPa NW 14.5 km/h 11.3 km/h 13% 0 mm 722.00 W/m2
14:44 40 °C 6.7 °C 1012.4 hPa WNW 14.5 km/h 14.5 km/h 13% 0 mm 719.00 W/m2
14:49 40 °C 6.7 °C 1012.4 hPa WNW 11.3 km/h 14.5 km/h 13% 0 mm 712.00 W/m2
14:54 40.6 °C 6.7 °C 1012.4 hPa WNW 17.7 km/h 11.3 km/h 13% 0 mm 701.00 W/m2
14:59 40.6 °C 5.6 °C 1012.4 hPa NW 9.7 km/h 16.1 km/h 12% 0 mm 687.00 W/m2
15:04 40.6 °C 6.7 °C 1012.4 hPa West 20.9 km/h 11.3 km/h 13% 0 mm 679.00 W/m2
15:09 40.6 °C 5.6 °C 1012.4 hPa WNW 11.3 km/h 20.9 km/h 12% 0 mm 666.00 W/m2
15:14 40.6 °C 8.3 °C 1012.4 hPa NNW 9.7 km/h 11.3 km/h 14% 0 mm 654.00 W/m2
15:19 40.6 °C 7.2 °C 1012.4 hPa West 17.7 km/h 12.9 km/h 13% 0 mm 645.00 W/m2
15:24 40.6 °C 7.2 °C 1012.4 hPa West 14.5 km/h 16.1 km/h 13% 0 mm 631.00 W/m2
15:29 41.1 °C 7.2 °C 1012.4 hPa WSW 14.5 km/h 14.5 km/h 13% 0 mm 615.00 W/m2
15:34 41.1 °C 7.2 °C 1012.4 hPa WSW 6.4 km/h 3.2 km/h 13% 0 mm 606.00 W/m2
15:39 41.1 °C 8.3 °C 1009 hPa South 3.2 km/h 4.8 km/h 14% 0 mm 592.00 W/m2
15:44 41.1 °C 7.2 °C 1009 hPa SSE 8 km/h 3.2 km/h 13% 0 mm 577.00 W/m2
15:49 41.1 °C 6.1 °C 1009 hPa NNW 14.5 km/h 14.5 km/h 12% 0 mm 563.00 W/m2
15:54 41.1 °C 7.2 °C 1009 hPa WNW 11.3 km/h 11.3 km/h 13% 0 mm 552.00 W/m2
15:59 41.1 °C 6.1 °C 1009 hPa West 20.9 km/h 14.5 km/h 12% 0 mm 543.00 W/m2
16:04 41.1 °C 7.8 °C 1009 hPa WSW 16.1 km/h 20.9 km/h 14% 0 mm 526.00 W/m2
16:09 40.6 °C 7.8 °C 1009 hPa West 6.4 km/h 9.7 km/h 14% 0 mm 510.00 W/m2
16:14 40.6 °C 8.9 °C 1009 hPa West 11.3 km/h 4.8 km/h 15% 0 mm 492.00 W/m2
16:19 40.6 °C 7.2 °C 1009 hPa WNW 11.3 km/h 11.3 km/h 13% 0 mm 480.00 W/m2
16:24 40.6 °C 7.2 °C 1009 hPa NW 11.3 km/h 11.3 km/h 13% 0 mm 462.00 W/m2
16:29 40.6 °C 6.7 °C 1009 hPa WNW 25.7 km/h 11.3 km/h 13% 0 mm 452.00 W/m2
16:34 40.6 °C 6.7 °C 1009 hPa West 25.7 km/h 25.7 km/h 13% 0 mm 436.00 W/m2
16:39 40.6 °C 6.7 °C 1009 hPa West 17.7 km/h 16.1 km/h 13% 0 mm 424.00 W/m2
16:44 40.6 °C 7.8 °C 1009 hPa NW 9.7 km/h 16.1 km/h 14% 0 mm 410.00 W/m2
16:49 40 °C 6.7 °C 1009 hPa ESE 11.3 km/h 9.7 km/h 13% 0 mm 396.00 W/m2
16:54 40 °C 7.8 °C 1009 hPa NW 17.7 km/h 11.3 km/h 14% 0 mm 380.00 W/m2
16:59 40 °C 7.8 °C 1009 hPa WNW 14.5 km/h 16.1 km/h 14% 0 mm 367.00 W/m2
17:04 40 °C 7.2 °C 1009 hPa WSW 9.7 km/h 14.5 km/h 14% 0 mm 352.00 W/m2
17:14 39.4 °C 6.1 °C 1009 hPa NW 9.7 km/h 11.3 km/h 13% 0 mm 139.00 W/m2
17:19 39.4 °C 7.8 °C 1009 hPa North 6.4 km/h 9.7 km/h 15% 0 mm 102.00 W/m2
17:24 38.9 °C 6.7 °C 1009 hPa WNW 9.7 km/h 4.8 km/h 14% 0 mm 128.00 W/m2
17:29 38.9 °C 6.7 °C 1009 hPa West 11.3 km/h 9.7 km/h 14% 0 mm 118.00 W/m2
17:34 38.3 °C 7.2 °C 1009 hPa WNW 9.7 km/h 11.3 km/h 15% 0 mm 95.00 W/m2
17:39 38.3 °C 6.7 °C 1009 hPa WSW 9.7 km/h 9.7 km/h 15% 0 mm 54.00 W/m2
17:44 37.8 °C 7.8 °C 1009 hPa NW 9.7 km/h 9.7 km/h 16% 0 mm 49.00 W/m2
17:49 37.8 °C 7.8 °C 1009 hPa NW 9.7 km/h 3.2 km/h 16% 0 mm 53.00 W/m2
17:54 37.2 °C 7.2 °C 1009 hPa NW 3.2 km/h 9.7 km/h 16% 0 mm 62.00 W/m2
17:59 37.2 °C 7.2 °C 1009 hPa NNW 3.2 km/h 3.2 km/h 16% 0 mm 67.00 W/m2
18:04 36.7 °C 8.3 °C 1009 hPa NW 3.2 km/h 3.2 km/h 18% 0 mm 81.00 W/m2
18:09 36.7 °C 8.3 °C 1009 hPa West 3.2 km/h 3.2 km/h 18% 0 mm 81.00 W/m2
18:14 36.7 °C 10 °C 1012.4 hPa West 3.2 km/h 3.2 km/h 20% 0 mm 63.00 W/m2
18:19 36.1 °C 9.4 °C 1012.4 hPa Calm   3.2 km/h 20% 0 mm 30.00 W/m2
18:24 36.1 °C 9.4 °C 1009 hPa West 3.2 km/h 3.2 km/h 20% 0 mm 26.00 W/m2
18:29 35.6 °C 10.6 °C 1009 hPa West 3.2 km/h 3.2 km/h 22% 0 mm 25.00 W/m2
18:34 35.6 °C 10.6 °C 1012.4 hPa West 3.2 km/h 3.2 km/h 22% 0 mm 23.00 W/m2
18:39 35 °C 11.7 °C 1012.4 hPa West 3.2 km/h 3.2 km/h 24% 0 mm 19.00 W/m2
18:44 35 °C 11.1 °C 1012.4 hPa WSW 3.2 km/h 3.2 km/h 24% 0 mm 18.00 W/m2
18:49 34.4 °C 12.2 °C 1012.4 hPa Calm     26% 0 mm 16.00 W/m2
18:54 34.4 °C 12.2 °C 1012.4 hPa Calm     26% 0 mm 14.00 W/m2
18:59 33.9 °C 11.1 °C 1012.4 hPa Calm     25% 0 mm 12.00 W/m2
19:04 33.9 °C 11.7 °C 1012.4 hPa Calm     26% 0 mm 11.00 W/m2
19:09 33.3 °C 10.6 °C 1012.4 hPa Calm     25% 0 mm 7.00 W/m2
19:14 33.3 °C 12.2 °C 1012.4 hPa Calm     28% 0 mm 5.00 W/m2
19:19 32.8 °C 11.7 °C 1012.4 hPa Calm     28% 0 mm 0.00 W/m2
19:24 32.8 °C 11.7 °C 1012.4 hPa Calm     28% 0 mm 0.00 W/m2
19:29 32.2 °C 13.3 °C 1012.4 hPa Calm     32% 0 mm 0.00 W/m2
19:34 31.7 °C 12.2 °C 1012.4 hPa Calm     30% 0 mm 0.00 W/m2
19:39 31.7 °C 12.8 °C 1012.4 hPa Calm     32% 0 mm 0.00 W/m2
19:44 31.1 °C 12.8 °C 1012.4 hPa Calm     33% 0 mm 0.00 W/m2
19:49 30.6 °C 11.7 °C 1012.4 hPa Calm     32% 0 mm 0.00 W/m2
19:54 30.6 °C 11.7 °C 1012.4 hPa Calm     32% 0 mm 0.00 W/m2
19:59 30 °C 11.1 °C 1012.4 hPa Calm     32% 0 mm 0.00 W/m2
20:04 29.4 °C 11.1 °C 1012.4 hPa Calm     32% 0 mm 0.00 W/m2
20:09 29.4 °C 10 °C 1012.4 hPa Calm     30% 0 mm 0.00 W/m2
20:14 28.9 °C 9.4 °C 1012.4 hPa Calm     29% 0 mm 0.00 W/m2
20:19 28.9 °C 9.4 °C 1012.4 hPa Calm     30% 0 mm 0.00 W/m2
20:24 28.9 °C 8.9 °C 1012.4 hPa Calm     29% 0 mm 0.00 W/m2
20:29 28.3 °C 9.4 °C 1012.4 hPa Calm     30% 0 mm 0.00 W/m2
20:34 28.3 °C 8.3 °C 1012.4 hPa Calm     28% 0 mm 0.00 W/m2
20:39 28.3 °C 7.8 °C 1012.4 hPa Calm     28% 0 mm 0.00 W/m2
20:44 28.3 °C 7.8 °C 1012.4 hPa Calm     28% 0 mm 0.00 W/m2
20:49 27.8 °C 7.8 °C 1012.4 hPa Calm     28% 0 mm 0.00 W/m2
20:54 27.8 °C 7.2 °C 1012.4 hPa Calm     27% 0 mm 0.00 W/m2
20:59 27.8 °C 7.2 °C 1012.4 hPa Calm     27% 0 mm 0.00 W/m2
21:04 27.8 °C 7.2 °C 1012.4 hPa Calm     28% 0 mm 0.00 W/m2
21:09 27.8 °C 7.8 °C 1012.4 hPa Calm     29% 0 mm 0.00 W/m2
21:14 27.2 °C 7.8 °C 1012.4 hPa Calm     29% 0 mm 0.00 W/m2
21:19 27.2 °C 7.8 °C 1012.4 hPa Calm     29% 0 mm 0.00 W/m2
21:24 27.2 °C 7.8 °C 1012.4 hPa Calm     29% 0 mm 0.00 W/m2
21:29 27.2 °C 7.2 °C 1012.4 hPa Calm     29% 0 mm 0.00 W/m2
21:34 27.2 °C 7.2 °C 1012.4 hPa Calm     29% 0 mm 0.00 W/m2
21:39 26.7 °C 7.2 °C 1012.4 hPa Calm     29% 0 mm 0.00 W/m2
21:44 26.7 °C 7.2 °C 1012.4 hPa Calm     29% 0 mm 0.00 W/m2
21:49 26.7 °C 7.8 °C 1012.4 hPa Calm     30% 0 mm 0.00 W/m2
21:54 26.7 °C 8.3 °C 1012.4 hPa Calm     32% 0 mm 0.00 W/m2
21:59 26.7 °C 7.2 °C 1012.4 hPa Calm     30% 0 mm 0.00 W/m2
22:04 26.7 °C 7.2 °C 1012.4 hPa Calm     30% 0 mm 0.00 W/m2
22:09 26.1 °C 8.3 °C 1012.4 hPa Calm     32% 0 mm 0.00 W/m2
22:14 26.1 °C 8.3 °C 1012.4 hPa Calm     32% 0 mm 0.00 W/m2
22:19 26.1 °C 8.3 °C 1012.4 hPa Calm     32% 0 mm 0.00 W/m2
22:24 26.1 °C 7.8 °C 1012.4 hPa Calm     31% 0 mm 0.00 W/m2
22:29 26.1 °C 7.8 °C 1012.4 hPa Calm     31% 0 mm 0.00 W/m2
22:34 26.1 °C 7.2 °C 1012.4 hPa Calm     30% 0 mm 0.00 W/m2
22:39 26.1 °C 7.8 °C 1012.4 hPa Calm     32% 0 mm 0.00 W/m2
22:44 26.1 °C 7.8 °C 1012.4 hPa Calm     32% 0 mm 0.00 W/m2
22:49 26.1 °C 7.8 °C 1012.4 hPa Calm     32% 0 mm 0.00 W/m2
22:54 25.6 °C 7.2 °C 1012.4 hPa Calm     31% 0 mm 0.00 W/m2
22:59 25.6 °C 7.2 °C 1012.4 hPa Calm     31% 0 mm 0.00 W/m2
El Dorado Weather
Compliments of Weather Underground - 4 mb